sensor_id;sensor_type;location;lat;lon;timestamp;temperature;humidity
9776;DHT22;4927;52.472;13.108;2024-01-30T00:00:21;-0.10;99.90
9776;DHT22;4927;52.472;13.108;2024-01-30T00:01:23;-0.10;99.90
9776;DHT22;4927;52.472;13.108;2024-01-30T00:02:25;-0.10;99.90
9776;DHT22;4927;52.472;13.108;2024-01-30T00:03:27;-0.10;99.90
9776;DHT22;4927;52.472;13.108;2024-01-30T00:04:29;-0.10;99.90
9776;DHT22;4927;52.472;13.108;2024-01-30T00:05:31;-0.10;99.90
9776;DHT22;4927;52.472;13.108;2024-01-30T00:06:32;-0.10;99.90
9776;DHT22;4927;52.472;13.108;2024-01-30T00:07:34;-0.10;99.90
9776;DHT22;4927;52.472;13.108;2024-01-30T00:08:36;-0.20;99.90
9776;DHT22;4927;52.472;13.108;2024-01-30T00:09:38;-0.10;99.90
9776;DHT22;4927;52.472;13.108;2024-01-30T00:10:39;-0.10;99.90
9776;DHT22;4927;52.472;13.108;2024-01-30T00:11:41;-0.10;99.90
9776;DHT22;4927;52.472;13.108;2024-01-30T00:12:43;-0.10;99.90
9776;DHT22;4927;52.472;13.108;2024-01-30T00:13:45;-0.20;99.90
9776;DHT22;4927;52.472;13.108;2024-01-30T00:14:46;-0.20;99.90
9776;DHT22;4927;52.472;13.108;2024-01-30T00:15:49;-0.20;99.90
9776;DHT22;4927;52.472;13.108;2024-01-30T00:16:51;-0.20;99.90
9776;DHT22;4927;52.472;13.108;2024-01-30T00:17:53;-0.20;99.90
9776;DHT22;4927;52.472;13.108;2024-01-30T00:18:55;-0.20;99.90
9776;DHT22;4927;52.472;13.108;2024-01-30T00:19:56;-0.20;99.90
9776;DHT22;4927;52.472;13.108;2024-01-30T00:20:58;-0.20;99.90
9776;DHT22;4927;52.472;13.108;2024-01-30T00:22:00;-0.20;99.90
9776;DHT22;4927;52.472;13.108;2024-01-30T00:23:01;-0.20;99.90
9776;DHT22;4927;52.472;13.108;2024-01-30T00:24:03;-0.20;99.90
9776;DHT22;4927;52.472;13.108;2024-01-30T00:25:06;-0.20;99.90
9776;DHT22;4927;52.472;13.108;2024-01-30T00:26:08;-0.20;99.90
9776;DHT22;4927;52.472;13.108;2024-01-30T00:27:10;-0.30;99.90
9776;DHT22;4927;52.472;13.108;2024-01-30T00:28:11;-0.30;99.90
9776;DHT22;4927;52.472;13.108;2024-01-30T00:29:13;-0.30;99.90
9776;DHT22;4927;52.472;13.108;2024-01-30T00:30:15;-0.30;99.90
9776;DHT22;4927;52.472;13.108;2024-01-30T00:31:17;-0.30;99.90
9776;DHT22;4927;52.472;13.108;2024-01-30T00:32:19;-0.30;99.90
9776;DHT22;4927;52.472;13.108;2024-01-30T00:33:20;-0.30;99.90
9776;DHT22;4927;52.472;13.108;2024-01-30T00:34:22;-0.30;99.90
9776;DHT22;4927;52.472;13.108;2024-01-30T00:35:24;-0.30;99.90
9776;DHT22;4927;52.472;13.108;2024-01-30T00:36:25;-0.30;99.90
9776;DHT22;4927;52.472;13.108;2024-01-30T00:37:27;-0.30;99.90
9776;DHT22;4927;52.472;13.108;2024-01-30T00:38:29;-0.30;99.90
9776;DHT22;4927;52.472;13.108;2024-01-30T00:39:30;-0.30;99.90
9776;DHT22;4927;52.472;13.108;2024-01-30T00:40:32;-0.30;99.90
9776;DHT22;4927;52.472;13.108;2024-01-30T00:41:34;-0.40;99.90
9776;DHT22;4927;52.472;13.108;2024-01-30T00:42:36;-0.40;99.90
9776;DHT22;4927;52.472;13.108;2024-01-30T00:43:38;-0.40;99.90
9776;DHT22;4927;52.472;13.108;2024-01-30T00:44:39;-0.40;99.90
9776;DHT22;4927;52.472;13.108;2024-01-30T00:45:43;-0.40;99.90
9776;DHT22;4927;52.472;13.108;2024-01-30T00:46:43;-0.40;99.90
9776;DHT22;4927;52.472;13.108;2024-01-30T00:47:45;-0.40;99.90
9776;DHT22;4927;52.472;13.108;2024-01-30T00:48:47;-0.40;99.90
9776;DHT22;4927;52.472;13.108;2024-01-30T00:49:49;-0.40;99.90
9776;DHT22;4927;52.472;13.108;2024-01-30T00:50:51;-0.40;99.90
9776;DHT22;4927;52.472;13.108;2024-01-30T00:51:53;-0.40;99.90
9776;DHT22;4927;52.472;13.108;2024-01-30T00:52:55;-0.40;99.90
9776;DHT22;4927;52.472;13.108;2024-01-30T00:53:56;-0.40;99.90
9776;DHT22;4927;52.472;13.108;2024-01-30T00:54:59;-0.40;99.90
9776;DHT22;4927;52.472;13.108;2024-01-30T00:56:00;-0.50;99.90
9776;DHT22;4927;52.472;13.108;2024-01-30T00:57:01;-0.50;99.90
9776;DHT22;4927;52.472;13.108;2024-01-30T00:58:04;-0.50;99.90
9776;DHT22;4927;52.472;13.108;2024-01-30T00:59:06;-0.50;99.90
9776;DHT22;4927;52.472;13.108;2024-01-30T01:00:08;-0.50;99.90
9776;DHT22;4927;52.472;13.108;2024-01-30T01:01:10;-0.50;99.90
9776;DHT22;4927;52.472;13.108;2024-01-30T01:02:12;-0.60;99.90
9776;DHT22;4927;52.472;13.108;2024-01-30T01:03:14;-0.60;99.90
9776;DHT22;4927;52.472;13.108;2024-01-30T01:04:16;-0.60;99.90
9776;DHT22;4927;52.472;13.108;2024-01-30T01:05:17;-0.60;99.90
9776;DHT22;4927;52.472;13.108;2024-01-30T01:06:19;-0.60;99.90
9776;DHT22;4927;52.472;13.108;2024-01-30T01:07:21;-0.60;99.90
9776;DHT22;4927;52.472;13.108;2024-01-30T01:08:22;-0.60;99.90
9776;DHT22;4927;52.472;13.108;2024-01-30T01:09:24;-0.60;99.90
9776;DHT22;4927;52.472;13.108;2024-01-30T01:10:26;-0.60;99.90
9776;DHT22;4927;52.472;13.108;2024-01-30T01:11:28;-0.60;99.90
9776;DHT22;4927;52.472;13.108;2024-01-30T01:12:29;-0.60;99.90
9776;DHT22;4927;52.472;13.108;2024-01-30T01:13:31;-0.60;99.90
9776;DHT22;4927;52.472;13.108;2024-01-30T01:14:33;-0.60;99.90
9776;DHT22;4927;52.472;13.108;2024-01-30T01:15:34;-0.60;99.90
9776;DHT22;4927;52.472;13.108;2024-01-30T01:16:36;-0.60;99.90
9776;DHT22;4927;52.472;13.108;2024-01-30T01:17:38;-0.60;99.90
9776;DHT22;4927;52.472;13.108;2024-01-30T01:18:40;-0.60;99.90
9776;DHT22;4927;52.472;13.108;2024-01-30T01:19:42;-0.60;99.90
9776;DHT22;4927;52.472;13.108;2024-01-30T01:20:43;-0.60;99.90
9776;DHT22;4927;52.472;13.108;2024-01-30T01:21:45;-0.50;99.90
9776;DHT22;4927;52.472;13.108;2024-01-30T01:22:47;-0.60;99.90
9776;DHT22;4927;52.472;13.108;2024-01-30T01:23:48;-0.60;99.90
9776;DHT22;4927;52.472;13.108;2024-01-30T01:24:50;-0.60;99.90
9776;DHT22;4927;52.472;13.108;2024-01-30T01:25:52;-0.60;99.90
9776;DHT22;4927;52.472;13.108;2024-01-30T01:26:53;-0.50;99.90
9776;DHT22;4927;52.472;13.108;2024-01-30T01:27:55;-0.50;99.90
9776;DHT22;4927;52.472;13.108;2024-01-30T01:28:57;-0.50;99.90
9776;DHT22;4927;52.472;13.108;2024-01-30T01:30:00;-0.50;99.90
9776;DHT22;4927;52.472;13.108;2024-01-30T01:31:01;-0.60;99.90
9776;DHT22;4927;52.472;13.108;2024-01-30T01:32:05;-0.50;99.90
9776;DHT22;4927;52.472;13.108;2024-01-30T01:33:07;-0.60;99.90
9776;DHT22;4927;52.472;13.108;2024-01-30T01:34:09;-0.50;99.90
9776;DHT22;4927;52.472;13.108;2024-01-30T01:35:11;-0.50;99.90
9776;DHT22;4927;52.472;13.108;2024-01-30T01:36:13;-0.50;99.90
9776;DHT22;4927;52.472;13.108;2024-01-30T01:37:15;-0.50;99.90
9776;DHT22;4927;52.472;13.108;2024-01-30T01:38:17;-0.50;99.90
9776;DHT22;4927;52.472;13.108;2024-01-30T01:39:18;-0.50;99.90
9776;DHT22;4927;52.472;13.108;2024-01-30T01:40:21;-0.50;99.90
9776;DHT22;4927;52.472;13.108;2024-01-30T01:41:22;-0.50;99.90
9776;DHT22;4927;52.472;13.108;2024-01-30T01:42:24;-0.50;99.90
9776;DHT22;4927;52.472;13.108;2024-01-30T01:43:25;-0.50;99.90
9776;DHT22;4927;52.472;13.108;2024-01-30T01:44:27;-0.50;99.90
9776;DHT22;4927;52.472;13.108;2024-01-30T01:45:29;-0.50;99.90
9776;DHT22;4927;52.472;13.108;2024-01-30T01:46:32;-0.50;99.90
9776;DHT22;4927;52.472;13.108;2024-01-30T01:47:32;-0.50;99.90
9776;DHT22;4927;52.472;13.108;2024-01-30T01:48:34;-0.50;99.90
9776;DHT22;4927;52.472;13.108;2024-01-30T01:49:35;-0.60;99.90
9776;DHT22;4927;52.472;13.108;2024-01-30T01:50:38;-0.60;99.90
9776;DHT22;4927;52.472;13.108;2024-01-30T01:51:39;-0.60;99.90
9776;DHT22;4927;52.472;13.108;2024-01-30T01:52:41;-0.60;99.90
9776;DHT22;4927;52.472;13.108;2024-01-30T01:53:43;-0.60;99.90
9776;DHT22;4927;52.472;13.108;2024-01-30T01:54:45;-0.60;99.90
9776;DHT22;4927;52.472;13.108;2024-01-30T01:55:47;-0.60;99.90
9776;DHT22;4927;52.472;13.108;2024-01-30T01:56:48;-0.60;99.90
9776;DHT22;4927;52.472;13.108;2024-01-30T01:57:51;-0.60;99.90
9776;DHT22;4927;52.472;13.108;2024-01-30T01:58:54;-0.60;99.90
9776;DHT22;4927;52.472;13.108;2024-01-30T01:59:55;-0.60;99.90
9776;DHT22;4927;52.472;13.108;2024-01-30T02:00:57;-0.60;99.90
9776;DHT22;4927;52.472;13.108;2024-01-30T02:01:59;-0.60;99.90
9776;DHT22;4927;52.472;13.108;2024-01-30T02:03:01;-0.60;99.90
9776;DHT22;4927;52.472;13.108;2024-01-30T02:04:04;-0.60;99.90
9776;DHT22;4927;52.472;13.108;2024-01-30T02:05:06;-0.60;99.90
9776;DHT22;4927;52.472;13.108;2024-01-30T02:06:08;-0.60;99.90
9776;DHT22;4927;52.472;13.108;2024-01-30T02:07:10;-0.70;99.90
9776;DHT22;4927;52.472;13.108;2024-01-30T02:08:12;-0.70;99.90
9776;DHT22;4927;52.472;13.108;2024-01-30T02:09:14;-0.70;99.90
9776;DHT22;4927;52.472;13.108;2024-01-30T02:10:16;-0.70;99.90
9776;DHT22;4927;52.472;13.108;2024-01-30T02:11:18;-0.70;99.90
9776;DHT22;4927;52.472;13.108;2024-01-30T02:12:20;-0.70;99.90
9776;DHT22;4927;52.472;13.108;2024-01-30T02:13:22;-0.70;99.90
9776;DHT22;4927;52.472;13.108;2024-01-30T02:14:24;-0.70;99.90
9776;DHT22;4927;52.472;13.108;2024-01-30T02:15:26;-0.70;99.90
9776;DHT22;4927;52.472;13.108;2024-01-30T02:16:28;-0.70;99.90
9776;DHT22;4927;52.472;13.108;2024-01-30T02:17:31;-0.70;99.90
9776;DHT22;4927;52.472;13.108;2024-01-30T02:18:32;-0.70;99.90
9776;DHT22;4927;52.472;13.108;2024-01-30T02:19:34;-0.70;99.90
9776;DHT22;4927;52.472;13.108;2024-01-30T02:20:36;-0.70;99.90
9776;DHT22;4927;52.472;13.108;2024-01-30T02:21:38;-0.70;99.90
9776;DHT22;4927;52.472;13.108;2024-01-30T02:22:41;-0.70;99.90
9776;DHT22;4927;52.472;13.108;2024-01-30T02:23:43;-0.70;99.90
9776;DHT22;4927;52.472;13.108;2024-01-30T02:24:45;-0.70;99.90
9776;DHT22;4927;52.472;13.108;2024-01-30T02:25:47;-0.70;99.90
9776;DHT22;4927;52.472;13.108;2024-01-30T02:26:49;-0.70;99.90
9776;DHT22;4927;52.472;13.108;2024-01-30T02:27:51;-0.80;99.90
9776;DHT22;4927;52.472;13.108;2024-01-30T02:28:53;-0.70;99.90
9776;DHT22;4927;52.472;13.108;2024-01-30T02:29:55;-0.70;99.90
9776;DHT22;4927;52.472;13.108;2024-01-30T02:30:57;-0.80;99.90
9776;DHT22;4927;52.472;13.108;2024-01-30T02:31:59;-0.70;99.90
9776;DHT22;4927;52.472;13.108;2024-01-30T02:33:01;-0.80;99.90
9776;DHT22;4927;52.472;13.108;2024-01-30T02:34:04;-0.80;99.90
9776;DHT22;4927;52.472;13.108;2024-01-30T02:35:06;-0.80;99.90
9776;DHT22;4927;52.472;13.108;2024-01-30T02:36:08;-0.80;99.90
9776;DHT22;4927;52.472;13.108;2024-01-30T02:37:10;-0.80;99.90
9776;DHT22;4927;52.472;13.108;2024-01-30T02:38:12;-0.80;99.90
9776;DHT22;4927;52.472;13.108;2024-01-30T02:39:15;-0.70;99.90
9776;DHT22;4927;52.472;13.108;2024-01-30T02:40:17;-0.80;99.90
9776;DHT22;4927;52.472;13.108;2024-01-30T02:41:19;-0.70;99.90
9776;DHT22;4927;52.472;13.108;2024-01-30T02:42:21;-0.80;99.90
9776;DHT22;4927;52.472;13.108;2024-01-30T02:43:23;-0.70;99.90
9776;DHT22;4927;52.472;13.108;2024-01-30T02:44:25;-0.70;99.90
9776;DHT22;4927;52.472;13.108;2024-01-30T02:45:27;-0.70;99.90
9776;DHT22;4927;52.472;13.108;2024-01-30T02:46:29;-0.80;99.90
9776;DHT22;4927;52.472;13.108;2024-01-30T02:47:31;-0.70;99.90
9776;DHT22;4927;52.472;13.108;2024-01-30T02:48:33;-0.80;99.90
9776;DHT22;4927;52.472;13.108;2024-01-30T02:49:35;-0.80;99.90
9776;DHT22;4927;52.472;13.108;2024-01-30T02:50:37;-0.80;99.90
9776;DHT22;4927;52.472;13.108;2024-01-30T02:51:39;-0.80;99.90
9776;DHT22;4927;52.472;13.108;2024-01-30T02:52:42;-0.80;99.90
9776;DHT22;4927;52.472;13.108;2024-01-30T02:53:44;-0.70;99.90
9776;DHT22;4927;52.472;13.108;2024-01-30T02:54:46;-0.80;99.90
9776;DHT22;4927;52.472;13.108;2024-01-30T02:55:48;-0.80;99.90
9776;DHT22;4927;52.472;13.108;2024-01-30T02:56:50;-0.70;99.90
9776;DHT22;4927;52.472;13.108;2024-01-30T02:57:52;-0.80;99.90
9776;DHT22;4927;52.472;13.108;2024-01-30T02:58:54;-0.80;99.90
9776;DHT22;4927;52.472;13.108;2024-01-30T02:59:55;-0.80;99.90
9776;DHT22;4927;52.472;13.108;2024-01-30T03:00:57;-0.80;99.90
9776;DHT22;4927;52.472;13.108;2024-01-30T03:01:59;-0.80;99.90
9776;DHT22;4927;52.472;13.108;2024-01-30T03:03:01;-0.80;99.90
9776;DHT22;4927;52.472;13.108;2024-01-30T03:04:03;-0.80;99.90
9776;DHT22;4927;52.472;13.108;2024-01-30T03:05:05;-0.80;99.90
9776;DHT22;4927;52.472;13.108;2024-01-30T03:06:07;-0.80;99.90
9776;DHT22;4927;52.472;13.108;2024-01-30T03:07:09;-0.80;99.90
9776;DHT22;4927;52.472;13.108;2024-01-30T03:08:11;-0.80;99.90
9776;DHT22;4927;52.472;13.108;2024-01-30T03:09:13;-0.80;99.90
9776;DHT22;4927;52.472;13.108;2024-01-30T03:10:15;-0.80;99.90
9776;DHT22;4927;52.472;13.108;2024-01-30T03:11:16;-0.80;99.90
9776;DHT22;4927;52.472;13.108;2024-01-30T03:12:18;-0.80;99.90
9776;DHT22;4927;52.472;13.108;2024-01-30T03:13:21;-0.80;99.90
9776;DHT22;4927;52.472;13.108;2024-01-30T03:14:22;-0.80;99.90
9776;DHT22;4927;52.472;13.108;2024-01-30T03:15:24;-0.80;99.90
9776;DHT22;4927;52.472;13.108;2024-01-30T03:16:26;-0.90;99.90
9776;DHT22;4927;52.472;13.108;2024-01-30T03:17:27;-0.90;99.90
9776;DHT22;4927;52.472;13.108;2024-01-30T03:18:30;-0.80;99.90
9776;DHT22;4927;52.472;13.108;2024-01-30T03:19:32;-0.90;99.90
9776;DHT22;4927;52.472;13.108;2024-01-30T03:20:33;-0.80;99.90
9776;DHT22;4927;52.472;13.108;2024-01-30T03:21:36;-0.80;99.90
9776;DHT22;4927;52.472;13.108;2024-01-30T03:22:38;-0.90;99.90
9776;DHT22;4927;52.472;13.108;2024-01-30T03:23:40;-0.90;99.90
9776;DHT22;4927;52.472;13.108;2024-01-30T03:24:42;-0.80;99.90
9776;DHT22;4927;52.472;13.108;2024-01-30T03:25:43;-0.90;99.90
9776;DHT22;4927;52.472;13.108;2024-01-30T03:26:45;-0.90;99.90
9776;DHT22;4927;52.472;13.108;2024-01-30T03:27:48;-0.80;99.90
9776;DHT22;4927;52.472;13.108;2024-01-30T03:28:51;-0.90;99.90
9776;DHT22;4927;52.472;13.108;2024-01-30T03:29:52;-0.80;99.90
9776;DHT22;4927;52.472;13.108;2024-01-30T03:30:54;-0.90;99.90
9776;DHT22;4927;52.472;13.108;2024-01-30T03:31:56;-0.90;99.90
9776;DHT22;4927;52.472;13.108;2024-01-30T03:32:58;-0.90;99.90
9776;DHT22;4927;52.472;13.108;2024-01-30T03:34:00;-0.90;99.90
9776;DHT22;4927;52.472;13.108;2024-01-30T03:35:01;-0.90;99.90
9776;DHT22;4927;52.472;13.108;2024-01-30T03:36:05;-0.90;99.90
9776;DHT22;4927;52.472;13.108;2024-01-30T03:37:07;-0.90;99.90
9776;DHT22;4927;52.472;13.108;2024-01-30T03:38:08;-0.90;99.90
9776;DHT22;4927;52.472;13.108;2024-01-30T03:39:10;-0.90;99.90
9776;DHT22;4927;52.472;13.108;2024-01-30T03:40:14;-0.80;99.90
9776;DHT22;4927;52.472;13.108;2024-01-30T03:41:16;-0.90;99.90
9776;DHT22;4927;52.472;13.108;2024-01-30T03:42:18;-0.90;99.90
9776;DHT22;4927;52.472;13.108;2024-01-30T03:43:20;-0.90;99.90
9776;DHT22;4927;52.472;13.108;2024-01-30T03:44:22;-0.90;99.90
9776;DHT22;4927;52.472;13.108;2024-01-30T03:45:24;-0.90;99.90
9776;DHT22;4927;52.472;13.108;2024-01-30T03:46:26;-0.90;99.90
9776;DHT22;4927;52.472;13.108;2024-01-30T03:47:28;-0.90;99.90
9776;DHT22;4927;52.472;13.108;2024-01-30T03:48:30;-0.90;99.90
9776;DHT22;4927;52.472;13.108;2024-01-30T03:49:32;-0.90;99.90
9776;DHT22;4927;52.472;13.108;2024-01-30T03:50:34;-0.90;99.90
9776;DHT22;4927;52.472;13.108;2024-01-30T03:51:37;-0.90;99.90
9776;DHT22;4927;52.472;13.108;2024-01-30T03:52:40;-0.90;99.90
9776;DHT22;4927;52.472;13.108;2024-01-30T03:53:42;-0.90;99.90
9776;DHT22;4927;52.472;13.108;2024-01-30T03:54:44;-0.90;99.90
9776;DHT22;4927;52.472;13.108;2024-01-30T03:55:46;-0.90;99.90
9776;DHT22;4927;52.472;13.108;2024-01-30T03:56:48;-0.90;99.90
9776;DHT22;4927;52.472;13.108;2024-01-30T03:57:50;-0.90;99.90
9776;DHT22;4927;52.472;13.108;2024-01-30T03:58:52;-0.90;99.90
9776;DHT22;4927;52.472;13.108;2024-01-30T03:59:54;-0.90;99.90
9776;DHT22;4927;52.472;13.108;2024-01-30T04:00:56;-0.90;99.90
9776;DHT22;4927;52.472;13.108;2024-01-30T04:01:58;-0.90;99.90
9776;DHT22;4927;52.472;13.108;2024-01-30T04:03:00;-0.90;99.90
9776;DHT22;4927;52.472;13.108;2024-01-30T04:04:01;-0.90;99.90
9776;DHT22;4927;52.472;13.108;2024-01-30T04:05:03;-0.90;99.90
9776;DHT22;4927;52.472;13.108;2024-01-30T04:06:06;-1.00;99.90
9776;DHT22;4927;52.472;13.108;2024-01-30T04:07:07;-0.90;99.90
9776;DHT22;4927;52.472;13.108;2024-01-30T04:08:10;-1.00;99.90
9776;DHT22;4927;52.472;13.108;2024-01-30T04:09:13;-1.00;99.90
9776;DHT22;4927;52.472;13.108;2024-01-30T04:10:14;-1.00;99.90
9776;DHT22;4927;52.472;13.108;2024-01-30T04:11:18;-1.00;99.90
9776;DHT22;4927;52.472;13.108;2024-01-30T04:12:18;-0.90;99.90
9776;DHT22;4927;52.472;13.108;2024-01-30T04:13:20;-1.00;99.90
9776;DHT22;4927;52.472;13.108;2024-01-30T04:14:23;-1.00;99.90
9776;DHT22;4927;52.472;13.108;2024-01-30T04:15:25;-1.00;99.90
9776;DHT22;4927;52.472;13.108;2024-01-30T04:16:27;-1.00;99.90
9776;DHT22;4927;52.472;13.108;2024-01-30T04:17:29;-1.00;99.90
9776;DHT22;4927;52.472;13.108;2024-01-30T04:18:31;-1.00;99.90
9776;DHT22;4927;52.472;13.108;2024-01-30T04:19:36;-1.00;99.90
9776;DHT22;4927;52.472;13.108;2024-01-30T04:20:35;-1.00;99.90
9776;DHT22;4927;52.472;13.108;2024-01-30T04:21:37;-1.00;99.90
9776;DHT22;4927;52.472;13.108;2024-01-30T04:22:38;-1.00;99.90
9776;DHT22;4927;52.472;13.108;2024-01-30T04:23:41;-1.00;99.90
9776;DHT22;4927;52.472;13.108;2024-01-30T04:24:42;-1.00;99.90
9776;DHT22;4927;52.472;13.108;2024-01-30T04:25:44;-1.00;99.90
9776;DHT22;4927;52.472;13.108;2024-01-30T04:26:46;-1.00;99.90
9776;DHT22;4927;52.472;13.108;2024-01-30T04:27:47;-1.00;99.90
9776;DHT22;4927;52.472;13.108;2024-01-30T04:28:49;-1.10;99.90
9776;DHT22;4927;52.472;13.108;2024-01-30T04:29:51;-1.00;99.90
9776;DHT22;4927;52.472;13.108;2024-01-30T04:30:53;-1.10;99.90
9776;DHT22;4927;52.472;13.108;2024-01-30T04:31:54;-1.10;99.90
9776;DHT22;4927;52.472;13.108;2024-01-30T04:32:56;-1.10;99.90
9776;DHT22;4927;52.472;13.108;2024-01-30T04:33:58;-1.10;99.90
9776;DHT22;4927;52.472;13.108;2024-01-30T04:35:00;-1.10;99.90
9776;DHT22;4927;52.472;13.108;2024-01-30T04:36:03;-1.10;99.90
9776;DHT22;4927;52.472;13.108;2024-01-30T04:37:04;-1.10;99.90
9776;DHT22;4927;52.472;13.108;2024-01-30T04:38:06;-1.10;99.90
9776;DHT22;4927;52.472;13.108;2024-01-30T04:39:08;-1.10;99.90
9776;DHT22;4927;52.472;13.108;2024-01-30T04:40:10;-1.10;99.90
9776;DHT22;4927;52.472;13.108;2024-01-30T04:41:12;-1.10;99.90
9776;DHT22;4927;52.472;13.108;2024-01-30T04:42:14;-1.10;99.90
9776;DHT22;4927;52.472;13.108;2024-01-30T04:43:16;-1.10;99.90
9776;DHT22;4927;52.472;13.108;2024-01-30T04:44:17;-1.10;99.90
9776;DHT22;4927;52.472;13.108;2024-01-30T04:45:19;-1.10;99.90
9776;DHT22;4927;52.472;13.108;2024-01-30T04:46:21;-1.10;99.90
9776;DHT22;4927;52.472;13.108;2024-01-30T04:47:23;-1.10;99.90
9776;DHT22;4927;52.472;13.108;2024-01-30T04:48:25;-1.10;99.90
9776;DHT22;4927;52.472;13.108;2024-01-30T04:49:27;-1.10;99.90
9776;DHT22;4927;52.472;13.108;2024-01-30T04:50:29;-1.10;99.90
9776;DHT22;4927;52.472;13.108;2024-01-30T04:51:30;-1.10;99.90
9776;DHT22;4927;52.472;13.108;2024-01-30T04:52:32;-1.10;99.90
9776;DHT22;4927;52.472;13.108;2024-01-30T04:53:34;-1.20;99.90
9776;DHT22;4927;52.472;13.108;2024-01-30T04:54:36;-1.10;99.90
9776;DHT22;4927;52.472;13.108;2024-01-30T04:55:37;-1.20;99.90
9776;DHT22;4927;52.472;13.108;2024-01-30T04:56:39;-1.20;99.90
9776;DHT22;4927;52.472;13.108;2024-01-30T04:57:41;-1.20;99.90
9776;DHT22;4927;52.472;13.108;2024-01-30T04:58:43;-1.20;99.90
9776;DHT22;4927;52.472;13.108;2024-01-30T04:59:46;-1.10;99.90
9776;DHT22;4927;52.472;13.108;2024-01-30T05:00:48;-1.20;99.90
9776;DHT22;4927;52.472;13.108;2024-01-30T05:01:50;-1.20;99.90
9776;DHT22;4927;52.472;13.108;2024-01-30T05:02:51;-1.10;99.90
9776;DHT22;4927;52.472;13.108;2024-01-30T05:03:54;-1.10;99.90
9776;DHT22;4927;52.472;13.108;2024-01-30T05:04:55;-1.20;99.90
9776;DHT22;4927;52.472;13.108;2024-01-30T05:05:57;-1.20;99.90
9776;DHT22;4927;52.472;13.108;2024-01-30T05:06:59;-1.20;99.90
9776;DHT22;4927;52.472;13.108;2024-01-30T05:08:01;-1.20;99.90
9776;DHT22;4927;52.472;13.108;2024-01-30T05:09:03;-1.20;99.90
9776;DHT22;4927;52.472;13.108;2024-01-30T05:10:06;-1.20;99.90
9776;DHT22;4927;52.472;13.108;2024-01-30T05:11:07;-1.20;99.90
9776;DHT22;4927;52.472;13.108;2024-01-30T05:12:10;-1.20;99.90
9776;DHT22;4927;52.472;13.108;2024-01-30T05:13:11;-1.20;99.90
9776;DHT22;4927;52.472;13.108;2024-01-30T05:14:13;-1.20;99.90
9776;DHT22;4927;52.472;13.108;2024-01-30T05:15:15;-1.20;99.90
9776;DHT22;4927;52.472;13.108;2024-01-30T05:16:16;-1.20;99.90
9776;DHT22;4927;52.472;13.108;2024-01-30T05:17:18;-1.20;99.90
9776;DHT22;4927;52.472;13.108;2024-01-30T05:18:20;-1.20;99.90
9776;DHT22;4927;52.472;13.108;2024-01-30T05:19:22;-1.20;99.90
9776;DHT22;4927;52.472;13.108;2024-01-30T05:20:24;-1.20;99.90
9776;DHT22;4927;52.472;13.108;2024-01-30T05:21:26;-1.20;99.90
9776;DHT22;4927;52.472;13.108;2024-01-30T05:22:28;-1.20;99.90
9776;DHT22;4927;52.472;13.108;2024-01-30T05:23:30;-1.20;99.90
9776;DHT22;4927;52.472;13.108;2024-01-30T05:24:32;-1.20;99.90
9776;DHT22;4927;52.472;13.108;2024-01-30T05:25:33;-1.20;99.90
9776;DHT22;4927;52.472;13.108;2024-01-30T05:26:35;-1.20;99.90
9776;DHT22;4927;52.472;13.108;2024-01-30T05:27:37;-1.20;99.90
9776;DHT22;4927;52.472;13.108;2024-01-30T05:28:39;-1.20;99.90
9776;DHT22;4927;52.472;13.108;2024-01-30T05:29:40;-1.20;99.90
9776;DHT22;4927;52.472;13.108;2024-01-30T05:30:42;-1.20;99.90
9776;DHT22;4927;52.472;13.108;2024-01-30T05:31:44;-1.20;99.90
9776;DHT22;4927;52.472;13.108;2024-01-30T05:32:46;-1.20;99.90
9776;DHT22;4927;52.472;13.108;2024-01-30T05:33:49;-1.20;99.90
9776;DHT22;4927;52.472;13.108;2024-01-30T05:34:51;-1.20;99.90
9776;DHT22;4927;52.472;13.108;2024-01-30T05:35:52;-1.20;99.90
9776;DHT22;4927;52.472;13.108;2024-01-30T05:36:54;-1.20;99.90
9776;DHT22;4927;52.472;13.108;2024-01-30T05:37:57;-1.20;99.90
9776;DHT22;4927;52.472;13.108;2024-01-30T05:38:59;-1.20;99.90
9776;DHT22;4927;52.472;13.108;2024-01-30T05:40:01;-1.20;99.90
9776;DHT22;4927;52.472;13.108;2024-01-30T05:41:04;-1.20;99.90
9776;DHT22;4927;52.472;13.108;2024-01-30T05:42:06;-1.20;99.90
9776;DHT22;4927;52.472;13.108;2024-01-30T05:43:08;-1.30;99.90
9776;DHT22;4927;52.472;13.108;2024-01-30T05:44:09;-1.10;99.90
9776;DHT22;4927;52.472;13.108;2024-01-30T05:45:11;-1.20;99.90
9776;DHT22;4927;52.472;13.108;2024-01-30T05:46:13;-1.20;99.90
9776;DHT22;4927;52.472;13.108;2024-01-30T05:47:15;-1.20;99.90
9776;DHT22;4927;52.472;13.108;2024-01-30T05:48:17;-1.20;99.90
9776;DHT22;4927;52.472;13.108;2024-01-30T05:49:20;-1.20;99.90
9776;DHT22;4927;52.472;13.108;2024-01-30T05:50:23;-1.20;99.90
9776;DHT22;4927;52.472;13.108;2024-01-30T05:51:25;-1.20;99.90
9776;DHT22;4927;52.472;13.108;2024-01-30T05:52:27;-1.20;99.90
9776;DHT22;4927;52.472;13.108;2024-01-30T05:53:29;-1.20;99.90
9776;DHT22;4927;52.472;13.108;2024-01-30T05:54:31;-1.20;99.90
9776;DHT22;4927;52.472;13.108;2024-01-30T05:55:33;-1.20;99.90
9776;DHT22;4927;52.472;13.108;2024-01-30T05:56:36;-1.20;99.90
9776;DHT22;4927;52.472;13.108;2024-01-30T05:57:39;-1.20;99.90
9776;DHT22;4927;52.472;13.108;2024-01-30T05:58:44;-1.20;99.90
9776;DHT22;4927;52.472;13.108;2024-01-30T05:59:47;-1.20;99.90
9776;DHT22;4927;52.472;13.108;2024-01-30T06:00:49;-1.20;99.90
9776;DHT22;4927;52.472;13.108;2024-01-30T06:01:54;-1.20;99.90
9776;DHT22;4927;52.472;13.108;2024-01-30T06:02:57;-1.20;99.90
9776;DHT22;4927;52.472;13.108;2024-01-30T06:03:58;-1.20;99.90
9776;DHT22;4927;52.472;13.108;2024-01-30T06:05:00;-1.20;99.90
9776;DHT22;4927;52.472;13.108;2024-01-30T06:06:02;-1.20;99.90
9776;DHT22;4927;52.472;13.108;2024-01-30T06:07:04;-1.20;99.90
9776;DHT22;4927;52.472;13.108;2024-01-30T06:08:06;-1.20;99.90
9776;DHT22;4927;52.472;13.108;2024-01-30T06:09:08;-1.20;99.90
9776;DHT22;4927;52.472;13.108;2024-01-30T06:10:10;-1.20;99.90
9776;DHT22;4927;52.472;13.108;2024-01-30T06:11:12;-1.20;99.90
9776;DHT22;4927;52.472;13.108;2024-01-30T06:12:15;-1.20;99.90
9776;DHT22;4927;52.472;13.108;2024-01-30T06:13:17;-1.20;99.90
9776;DHT22;4927;52.472;13.108;2024-01-30T06:14:19;-1.20;99.90
9776;DHT22;4927;52.472;13.108;2024-01-30T06:15:20;-1.20;99.90
9776;DHT22;4927;52.472;13.108;2024-01-30T06:16:22;-1.20;99.90
9776;DHT22;4927;52.472;13.108;2024-01-30T06:17:25;-1.20;99.90
9776;DHT22;4927;52.472;13.108;2024-01-30T06:18:26;-1.20;99.90
9776;DHT22;4927;52.472;13.108;2024-01-30T06:19:28;-1.20;99.90
9776;DHT22;4927;52.472;13.108;2024-01-30T06:20:30;-1.20;99.90
9776;DHT22;4927;52.472;13.108;2024-01-30T06:21:32;-1.20;99.90
9776;DHT22;4927;52.472;13.108;2024-01-30T06:22:33;-1.20;99.90
9776;DHT22;4927;52.472;13.108;2024-01-30T06:23:35;-1.20;99.90
9776;DHT22;4927;52.472;13.108;2024-01-30T06:24:37;-1.20;99.90
9776;DHT22;4927;52.472;13.108;2024-01-30T06:25:39;-1.20;99.90
9776;DHT22;4927;52.472;13.108;2024-01-30T06:26:41;-1.20;99.90
9776;DHT22;4927;52.472;13.108;2024-01-30T06:27:44;-1.20;99.90
9776;DHT22;4927;52.472;13.108;2024-01-30T06:28:46;-1.20;99.90
9776;DHT22;4927;52.472;13.108;2024-01-30T06:29:48;-1.20;99.90
9776;DHT22;4927;52.472;13.108;2024-01-30T06:30:50;-1.20;99.90
9776;DHT22;4927;52.472;13.108;2024-01-30T06:31:52;-1.20;99.90
9776;DHT22;4927;52.472;13.108;2024-01-30T06:32:54;-1.20;99.90
9776;DHT22;4927;52.472;13.108;2024-01-30T06:33:56;-1.20;99.90
9776;DHT22;4927;52.472;13.108;2024-01-30T06:34:58;-1.20;99.90
9776;DHT22;4927;52.472;13.108;2024-01-30T06:36:00;-1.20;99.90
9776;DHT22;4927;52.472;13.108;2024-01-30T06:37:02;-1.20;99.90